Time;durP1;ratioP1;P1;durP2;ratioP2;P2;SDS_P1;SDS_P2;PMS_P1;PMS_P2;Temp;Humidity;BMP_temperature;BMP_pressure;BME280_temperature;BME280_humidity;BME280_pressure;Samples;Min_cycle;Max_cycle;Signal;HPM_P1;HPM_P2
2021/06/04 00:00:26;;;;;;;13.32;4.80;;;15.40;66.90;;;;;;5052084;28;20025;-79
2021/06/04 00:02:52;;;;;;;8.40;4.80;;;15.40;66.90;;;;;;5052936;28;20118;-80
2021/06/04 00:05:22;;;;;;;9.00;4.60;;;15.40;67.00;;;;;;5052334;28;20029;-79
2021/06/04 00:07:48;;;;;;;13.45;5.28;;;15.40;67.10;;;;;;5052731;28;20029;-79
2021/06/04 00:10:24;;;;;;;6.82;4.85;;;15.40;67.10;;;;;;5052689;28;20029;-79
2021/06/04 00:12:50;;;;;;;7.35;4.88;;;15.40;67.20;;;;;;5052605;28;20029;-79
2021/06/04 00:15:24;;;;;;;8.52;4.65;;;15.50;67.30;;;;;;5057146;28;20032;-80
2021/06/04 00:17:50;;;;;;;8.80;4.75;;;15.50;67.20;;;;;;5058174;28;20029;-79
2021/06/04 00:20:24;;;;;;;8.43;4.55;;;15.50;67.10;;;;;;5057486;28;20374;-79
2021/06/04 00:22:50;;;;;;;9.55;5.40;;;15.50;67.20;;;;;;5054787;28;20037;-79
2021/06/04 00:25:16;;;;;;;9.38;5.25;;;15.50;67.10;;;;;;5056977;28;20029;-79
2021/06/04 00:27:42;;;;;;;13.13;5.60;;;15.50;67.10;;;;;;5056688;28;20032;-79
2021/06/04 00:30:09;;;;;;;12.60;4.78;;;15.50;67.10;;;;;;5056714;28;20407;-79
2021/06/04 00:32:35;;;;;;;10.25;4.97;;;15.50;67.10;;;;;;5054706;28;20529;-80
2021/06/04 00:35:01;;;;;;;9.35;4.90;;;15.50;67.00;;;;;;5054897;28;20039;-81
2021/06/04 00:37:27;;;;;;;12.88;4.50;;;15.50;67.00;;;;;;5056412;28;20021;-80
2021/06/04 00:39:53;;;;;;;12.23;4.82;;;15.60;67.00;;;;;;5056470;28;20021;-80
2021/06/04 00:42:28;;;;;;;12.60;5.57;;;15.60;66.90;;;;;;5055268;28;20430;-80
2021/06/04 00:44:57;;;;;;;9.70;4.88;;;15.50;66.90;;;;;;5056229;28;20075;-80
2021/06/04 00:47:24;;;;;;;11.60;4.90;;;15.60;66.90;;;;;;5054332;28;20032;-80
2021/06/04 00:49:49;;;;;;;4.88;4.38;;;15.60;66.90;;;;;;5055269;28;20403;-79
2021/06/04 00:52:29;;;;;;;8.00;4.70;;;15.60;66.80;;;;;;5057496;28;20025;-79
2021/06/04 00:54:57;;;;;;;8.05;4.57;;;15.60;66.80;;;;;;5056746;28;20036;-79
2021/06/04 00:57:24;;;;;;;6.55;4.50;;;15.60;66.80;;;;;;5056650;28;20017;-80
2021/06/04 00:59:50;;;;;;;12.43;5.10;;;15.60;66.70;;;;;;5055749;28;20043;-79
2021/06/04 01:02:21;;;;;;;8.27;5.03;;;15.60;66.70;;;;;;5056544;28;20032;-80
2021/06/04 01:04:47;;;;;;;9.75;5.15;;;15.60;66.70;;;;;;5056660;28;20094;-80
2021/06/04 01:07:22;;;;;;;8.15;4.50;;;15.50;66.70;;;;;;5057609;28;20513;-80
2021/06/04 01:10:10;;;;;;;10.35;4.68;;;15.50;66.90;;;;;;5057581;28;20033;-80
2021/06/04 01:12:49;;;;;;;10.23;4.50;;;15.50;66.90;;;;;;5064720;28;20025;-80
2021/06/04 01:15:21;;;;;;;9.05;4.57;;;15.40;67.00;;;;;;5055029;28;20021;-80
2021/06/04 01:18:06;;;;;;;6.47;4.50;;;15.40;67.00;;;;;;5055351;28;20518;-80
2021/06/04 01:20:47;;;;;;;6.05;4.55;;;15.30;67.10;;;;;;5055619;28;20082;-80
2021/06/04 01:23:28;;;;;;;8.82;4.90;;;15.30;67.20;;;;;;5053647;28;20075;-80
2021/06/04 01:25:56;;;;;;;9.95;4.60;;;15.20;67.40;;;;;;5052827;28;20493;-80
2021/06/04 01:28:25;;;;;;;10.57;5.07;;;15.20;67.50;;;;;;5055498;28;20060;-79
2021/06/04 01:30:54;;;;;;;7.50;4.97;;;15.20;67.60;;;;;;5055761;28;20029;-80
2021/06/04 01:33:25;;;;;;;7.85;4.38;;;15.10;67.70;;;;;;5054676;28;20029;-79
2021/06/04 01:35:55;;;;;;;15.75;4.32;;;15.10;67.90;;;;;;5054381;28;20063;-78
2021/06/04 01:38:27;;;;;;;14.13;4.32;;;15.10;68.00;;;;;;5054713;28;20017;-79
2021/06/04 01:40:58;;;;;;;10.77;4.78;;;15.10;68.20;;;;;;5054630;28;20025;-80
2021/06/04 01:43:31;;;;;;;8.00;4.35;;;15.10;68.20;;;;;;5053557;28;20418;-81
2021/06/04 01:46:04;;;;;;;7.72;4.32;;;15.00;68.30;;;;;;5054318;28;20483;-79
2021/06/04 01:48:36;;;;;;;6.90;4.05;;;15.00;68.40;;;;;;5054756;28;20464;-79
2021/06/04 01:51:08;;;;;;;5.67;4.43;;;15.00;68.60;;;;;;5054717;28;20017;-80
2021/06/04 01:53:40;;;;;;;12.82;4.68;;;15.00;68.70;;;;;;5055143;28;20803;-80
2021/06/04 01:56:16;;;;;;;8.40;4.60;;;15.00;68.80;;;;;;5053079;28;20129;-79
2021/06/04 01:58:51;;;;;;;8.38;4.40;;;15.00;69.00;;;;;;5054403;28;20029;-79
2021/06/04 02:01:31;;;;;;;10.23;4.30;;;15.00;69.20;;;;;;5054637;28;20020;-79
2021/06/04 02:03:58;;;;;;;10.07;4.50;;;15.00;69.40;;;;;;5055280;28;20025;-79
2021/06/04 02:06:25;;;;;;;10.40;4.53;;;15.00;69.40;;;;;;5053887;28;20028;-79
2021/06/04 02:08:54;;;;;;;6.47;4.15;;;15.00;69.60;;;;;;5054400;28;20375;-79
2021/06/04 02:11:25;;;;;;;6.47;4.40;;;15.00;69.90;;;;;;5054122;28;20472;-79
2021/06/04 02:13:51;;;;;;;12.85;4.53;;;15.10;70.00;;;;;;5054190;28;20467;-79
2021/06/04 02:16:54;;;;;;;5.15;4.18;;;15.30;70.20;;;;;;5053641;28;20067;-79
2021/06/04 02:19:34;;;;;;;9.25;4.45;;;15.60;70.20;;;;;;5053615;28;20044;-80
2021/06/04 02:22:20;;;;;;;4.85;3.38;;;16.20;69.70;;;;;;5053919;28;20480;-80
2021/06/04 02:25:26;;;;;;;5.82;4.20;;;16.90;68.60;;;;;;5052330;28;20467;-79
2021/06/04 02:28:00;;;;;;;7.95;4.00;;;17.70;67.20;;;;;;5053104;28;20025;-80
2021/06/04 02:30:33;;;;;;;7.50;4.38;;;18.70;65.70;;;;;;5053507;28;20028;-80
2021/06/04 02:33:21;;;;;;;11.25;4.25;;;19.60;63.80;;;;;;5053733;28;20032;-80
2021/06/04 02:35:59;;;;;;;7.13;4.32;;;20.50;61.60;;;;;;5052590;28;20116;-80
2021/06/04 02:38:37;;;;;;;6.35;3.90;;;21.50;59.50;;;;;;5052973;28;20036;-80
2021/06/04 02:41:12;;;;;;;5.55;3.90;;;22.40;57.30;;;;;;5054459;28;20025;-80
2021/06/04 02:43:48;;;;;;;13.50;4.88;;;23.20;55.50;;;;;;5053531;28;20079;-80
2021/06/04 02:46:23;;;;;;;10.45;4.25;;;24.00;53.70;;;;;;5053468;28;20025;-80
2021/06/04 02:48:51;;;;;;;7.25;3.97;;;24.80;52.30;;;;;;5053719;28;20075;-79
2021/06/04 02:51:41;;;;;;;6.38;3.60;;;25.60;51.20;;;;;;5053472;28;20032;-79
2021/06/04 02:54:14;;;;;;;9.05;3.80;;;26.40;49.20;;;;;;5053171;28;20479;-80
2021/06/04 02:56:40;;;;;;;9.32;3.83;;;27.20;48.10;;;;;;5051966;28;20028;-80
2021/06/04 02:59:06;;;;;;;5.78;3.40;;;27.90;47.20;;;;;;5053242;28;20014;-80
2021/06/04 03:01:34;;;;;;;9.48;4.03;;;28.50;46.00;;;;;;5053470;28;20029;-80
2021/06/04 03:04:02;;;;;;;13.20;3.83;;;29.10;44.80;;;;;;5053839;28;20043;-81
2021/06/04 03:06:39;;;;;;;7.15;3.33;;;29.60;43.90;;;;;;5053504;28;20017;-81
2021/06/04 03:09:11;;;;;;;9.13;3.75;;;30.10;42.70;;;;;;5053303;28;20139;-80
2021/06/04 03:11:38;;;;;;;10.30;3.85;;;30.30;42.20;;;;;;5053821;28;20049;-81
2021/06/04 03:14:06;;;;;;;7.72;4.00;;;30.20;41.70;;;;;;5063705;28;20029;-80
2021/06/04 03:16:32;;;;;;;7.32;3.60;;;30.00;41.00;;;;;;5054238;28;20040;-80
2021/06/04 03:19:06;;;;;;;4.80;3.60;;;29.40;40.90;;;;;;5052989;28;20021;-80
2021/06/04 03:21:42;;;;;;;7.15;4.30;;;28.40;41.10;;;;;;5052904;28;20032;-80
2021/06/04 03:24:12;;;;;;;6.75;3.97;;;27.40;41.80;;;;;;5052446;28;20060;-80
2021/06/04 03:26:40;;;;;;;8.45;4.35;;;26.40;42.70;;;;;;5051837;28;20032;-80
2021/06/04 03:29:10;;;;;;;8.75;4.03;;;25.60;43.70;;;;;;5050472;28;20049;-79
2021/06/04 03:31:38;;;;;;;15.70;4.15;;;25.00;44.70;;;;;;5051939;28;20024;-80
2021/06/04 03:34:06;;;;;;;9.95;4.35;;;24.50;45.70;;;;;;5052127;28;20079;-79
2021/06/04 03:36:35;;;;;;;12.63;4.45;;;24.10;46.50;;;;;;5052730;28;20029;-79
2021/06/04 03:39:04;;;;;;;14.77;4.82;;;23.90;47.20;;;;;;5050669;28;20025;-80
2021/06/04 03:41:33;;;;;;;7.32;4.60;;;23.90;47.70;;;;;;5052258;28;20025;-79
2021/06/04 03:44:00;;;;;;;4.55;4.00;;;24.00;48.10;;;;;;5051959;28;20021;-79
2021/06/04 03:46:26;;;;;;;7.80;4.70;;;24.60;48.10;;;;;;5052260;28;20040;-80
2021/06/04 03:48:52;;;;;;;5.75;4.40;;;25.20;47.40;;;;;;5053129;28;20032;-79
2021/06/04 03:51:24;;;;;;;8.95;4.22;;;25.90;46.90;;;;;;5052109;28;20033;-80
2021/06/04 03:53:50;;;;;;;7.80;4.18;;;26.30;45.80;;;;;;5053132;28;20047;-80
2021/06/04 03:56:18;;;;;;;7.40;4.00;;;26.20;45.30;;;;;;5051147;28;20120;-85
2021/06/04 03:58:45;;;;;;;9.45;4.88;;;26.40;45.60;;;;;;5051421;28;20029;-80
2021/06/04 04:01:21;;;;;;;7.13;4.25;;;27.60;45.90;;;;;;5052161;28;20151;-81
2021/06/04 04:03:47;;;;;;;8.90;4.10;;;28.60;44.10;;;;;;5052069;28;20078;-85
2021/06/04 04:06:12;;;;;;;11.50;4.05;;;28.80;43.00;;;;;;5052642;28;20033;-81
2021/06/04 04:08:38;;;;;;;10.80;3.90;;;29.30;42.50;;;;;;5052427;28;20032;-84
2021/06/04 04:11:05;;;;;;;8.68;3.63;;;29.40;41.90;;;;;;5051329;28;20725;-80
2021/06/04 04:13:31;;;;;;;7.57;4.35;;;29.60;41.70;;;;;;5050095;28;20099;-79
2021/06/04 04:15:58;;;;;;;5.95;3.65;;;29.60;41.10;;;;;;5051640;28;20101;-81
2021/06/04 04:18:24;;;;;;;9.07;4.15;;;29.20;40.90;;;;;;5051625;28;20017;-79
2021/06/04 04:20:53;;;;;;;7.25;3.63;;;28.60;40.90;;;;;;5051782;28;20024;-80
2021/06/04 04:23:26;;;;;;;4.38;3.60;;;28.20;41.50;;;;;;5051515;28;20452;-82
2021/06/04 04:25:52;;;;;;;9.48;3.90;;;28.10;41.90;;;;;;5053942;28;20032;-80
2021/06/04 04:28:23;;;;;;;12.68;4.10;;;27.70;41.90;;;;;;5052558;28;20045;-81
2021/06/04 04:30:49;;;;;;;11.63;4.28;;;27.10;42.10;;;;;;5051065;28;20112;-80
2021/06/04 04:33:16;;;;;;;8.90;3.83;;;26.50;43.30;;;;;;5052340;28;20060;-80
2021/06/04 04:35:42;;;;;;;17.98;4.90;;;25.90;43.40;;;;;;5052434;28;20022;-80
2021/06/04 04:38:09;;;;;;;11.68;4.20;;;25.30;44.20;;;;;;5050961;28;20021;-79
2021/06/04 04:40:38;;;;;;;7.45;4.18;;;24.80;44.90;;;;;;5051511;28;20464;-79
2021/06/04 04:43:05;;;;;;;8.82;4.30;;;24.40;45.80;;;;;;5051178;28;20020;-78
2021/06/04 04:45:31;;;;;;;9.68;3.90;;;24.00;46.40;;;;;;5049329;28;20036;-77
2021/06/04 04:47:59;;;;;;;6.72;4.30;;;23.70;47.00;;;;;;5052346;28;20032;-77
2021/06/04 04:50:26;;;;;;;16.45;4.40;;;23.40;47.50;;;;;;5051171;28;20021;-77
2021/06/04 04:52:53;;;;;;;8.75;5.32;;;23.30;48.20;;;;;;5051238;28;20028;-78
2021/06/04 04:55:21;;;;;;;11.80;4.80;;;23.00;48.70;;;;;;5049914;28;20028;-79
2021/06/04 04:57:47;;;;;;;17.17;6.00;;;22.90;49.20;;;;;;5050424;28;20017;-80
2021/06/04 05:00:17;;;;;;;16.27;6.22;;;22.80;49.40;;;;;;5051431;28;20032;-80
2021/06/04 05:02:43;;;;;;;11.40;5.63;;;22.70;49.70;;;;;;5054308;28;20032;-79
2021/06/04 05:05:09;;;;;;;18.13;6.35;;;22.60;50.00;;;;;;5054888;28;20029;-79
2021/06/04 05:07:35;;;;;;;10.77;4.63;;;22.50;50.10;;;;;;5054509;28;20027;-80
2021/06/04 05:10:01;;;;;;;6.40;4.15;;;22.50;50.30;;;;;;5054379;28;20483;-80
2021/06/04 05:12:27;;;;;;;10.95;4.50;;;22.40;50.50;;;;;;5054091;28;20064;-80
2021/06/04 05:14:53;;;;;;;10.15;4.32;;;22.40;50.50;;;;;;5052521;28;20052;-80
2021/06/04 05:17:19;;;;;;;9.60;4.35;;;22.50;50.70;;;;;;5052766;28;20016;-80
2021/06/04 05:19:47;;;;;;;7.60;4.32;;;22.50;50.70;;;;;;5053649;28;20052;-79
2021/06/04 05:22:14;;;;;;;14.77;4.80;;;22.50;50.70;;;;;;5053890;28;20063;-79
2021/06/04 05:24:39;;;;;;;9.55;4.70;;;22.70;50.90;;;;;;5052172;28;20029;-79
2021/06/04 05:27:05;;;;;;;8.50;4.32;;;22.80;50.80;;;;;;5053194;28;20430;-78
2021/06/04 05:29:32;;;;;;;8.55;4.60;;;23.10;50.60;;;;;;5053067;28;20491;-78
2021/06/04 05:31:58;;;;;;;24.60;5.20;;;23.40;50.30;;;;;;5054658;28;20029;-81
2021/06/04 05:34:24;;;;;;;18.77;5.25;;;23.70;49.80;;;;;;5054250;28;20100;-83
2021/06/04 05:36:50;;;;;;;8.02;3.83;;;24.00;49.30;;;;;;5055551;28;20025;-82
2021/06/04 05:39:19;;;;;;;8.05;4.07;;;24.20;49.50;;;;;;5053780;28;20368;-82
2021/06/04 05:41:48;;;;;;;12.40;5.82;;;24.30;48.40;;;;;;5052941;28;20468;-82
2021/06/04 05:44:18;;;;;;;9.40;4.53;;;24.50;48.30;;;;;;5053081;28;20029;-83
2021/06/04 05:46:48;;;;;;;9.25;4.78;;;24.70;48.00;;;;;;5053884;28;20063;-83
2021/06/04 05:49:14;;;;;;;6.50;3.88;;;25.00;47.70;;;;;;5055026;28;20074;-84
2021/06/04 05:51:41;;;;;;;8.82;4.40;;;25.20;47.40;;;;;;5056144;28;20021;-86
2021/06/04 05:54:07;;;;;;;10.45;4.00;;;25.60;46.80;;;;;;5055156;28;20029;-80
2021/06/04 05:56:33;;;;;;;11.02;4.03;;;26.00;46.60;;;;;;5054794;28;20159;-86
2021/06/04 05:58:59;;;;;;;8.82;3.80;;;26.60;46.10;;;;;;5054648;28;20025;-83
2021/06/04 06:01:29;;;;;;;11.00;4.28;;;27.20;45.20;;;;;;5053493;28;20454;-88
2021/06/04 06:03:55;;;;;;;14.23;5.47;;;27.70;44.50;;;;;;5054466;28;20016;-89
2021/06/04 06:06:21;;;;;;;8.88;4.22;;;28.10;44.30;;;;;;5053286;28;20027;-87
2021/06/04 06:08:47;;;;;;;12.00;4.15;;;28.60;43.60;;;;;;5054491;28;20096;-88
2021/06/04 06:11:15;;;;;;;13.57;5.82;;;29.30;43.00;;;;;;5053234;28;20033;-88
2021/06/04 06:13:42;;;;;;;12.43;4.20;;;29.90;42.20;;;;;;5066169;28;20047;-89
2021/06/04 06:16:09;;;;;;;10.00;4.25;;;30.60;41.60;;;;;;5072503;28;20391;-89
2021/06/04 06:18:35;;;;;;;11.82;4.15;;;31.30;40.70;;;;;;5054626;28;20112;-88
2021/06/04 06:21:02;;;;;;;6.43;4.78;;;32.30;40.40;;;;;;5055354;28;20103;-88
2021/06/04 06:23:31;;;;;;;15.48;6.22;;;33.50;39.40;;;;;;5059801;28;20055;-88
2021/06/04 06:26:01;;;;;;;14.40;4.47;;;34.10;38.10;;;;;;5072475;28;20047;-89
2021/06/04 06:28:33;;;;;;;15.17;5.13;;;35.00;37.40;;;;;;5073969;28;20052;-88
2021/06/04 06:31:01;;;;;;;13.15;4.40;;;35.70;36.60;;;;;;5072370;28;20036;-88
2021/06/04 06:33:27;;;;;;;6.53;4.00;;;36.50;36.00;;;;;;5058139;28;20033;-90
2021/06/04 06:35:58;;;;;;;11.60;4.00;;;36.90;35.00;;;;;;5055356;28;20029;-90
2021/06/04 06:38:26;;;;;;;9.77;4.95;;;37.20;34.50;;;;;;5055880;28;20094;-91
2021/06/04 06:40:53;;;;;;;8.93;5.22;;;37.30;34.00;;;;;;5054574;28;20017;-90
2021/06/04 06:43:22;;;;;;;17.60;5.30;;;37.70;33.90;;;;;;5054177;28;20017;-87
2021/06/04 06:45:47;;;;;;;8.75;3.90;;;37.90;33.40;;;;;;5056091;28;20021;-89
2021/06/04 06:48:13;;;;;;;6.90;5.00;;;38.30;33.20;;;;;;5055494;28;20032;-87
2021/06/04 06:50:41;;;;;;;9.13;4.00;;;38.40;32.70;;;;;;5073879;28;20021;-86
2021/06/04 06:53:09;;;;;;;11.15;4.85;;;37.90;32.20;;;;;;5055021;28;20021;-86
2021/06/04 06:55:36;;;;;;;9.20;4.95;;;37.10;32.30;;;;;;5055103;28;20021;-86
2021/06/04 06:58:04;;;;;;;13.38;5.63;;;37.00;33.40;;;;;;5054583;28;20510;-87
2021/06/04 07:00:36;;;;;;;11.15;6.18;;;37.30;33.20;;;;;;5054219;28;20031;-87
2021/06/04 07:03:03;;;;;;;12.07;4.50;;;37.80;32.90;;;;;;5052021;28;20055;-88
2021/06/04 07:05:30;;;;;;;14.07;4.35;;;38.00;32.50;;;;;;5054785;28;20077;-87
2021/06/04 07:07:56;;;;;;;21.85;4.80;;;38.10;32.30;;;;;;5053463;28;20073;-88
2021/06/04 07:10:28;;;;;;;12.07;3.95;;;38.20;32.30;;;;;;5052365;28;20040;-88
2021/06/04 07:12:54;;;;;;;12.48;4.13;;;38.50;31.90;;;;;;5050216;28;20398;-84
2021/06/04 07:15:22;;;;;;;14.02;4.15;;;38.80;31.50;;;;;;5049556;28;20028;-83
2021/06/04 07:17:49;;;;;;;10.60;3.90;;;39.00;31.20;;;;;;5051017;28;20021;-83
2021/06/04 07:20:16;;;;;;;9.75;3.40;;;38.90;31.70;;;;;;5051661;28;20116;-87
2021/06/04 07:22:44;;;;;;;10.13;4.35;;;38.80;30.80;;;;;;5050860;28;20109;-85
2021/06/04 07:25:14;;;;;;;13.93;10.52;;;38.80;31.10;;;;;;5056618;28;20096;-82
2021/06/04 07:27:41;;;;;;;4.95;3.72;;;38.70;30.80;;;;;;5052789;28;20021;-84
2021/06/04 07:30:11;;;;;;;14.02;3.30;;;38.70;30.80;;;;;;5050450;28;20044;-83
2021/06/04 07:32:39;;;;;;;7.20;3.63;;;38.80;30.70;;;;;;5050312;28;20128;-82
2021/06/04 07:35:07;;;;;;;10.88;4.35;;;38.90;31.10;;;;;;5048422;28;20091;-82
2021/06/04 07:37:33;;;;;;;10.18;3.47;;;39.00;30.90;;;;;;5046923;28;20021;-82
2021/06/04 07:39:59;;;;;;;11.15;3.60;;;39.00;30.70;;;;;;5049145;28;20486;-82
2021/06/04 07:42:25;;;;;;;12.02;3.70;;;39.00;30.60;;;;;;5049537;28;20815;-81
2021/06/04 07:44:50;;;;;;;12.95;3.60;;;39.00;30.80;;;;;;5049303;28;20021;-85
2021/06/04 07:47:16;;;;;;;10.15;3.00;;;38.90;30.60;;;;;;5050258;28;20357;-85
2021/06/04 07:49:42;;;;;;;11.07;6.95;;;38.90;30.40;;;;;;5052908;28;20062;-83
2021/06/04 07:52:08;;;;;;;8.70;3.30;;;38.80;30.40;;;;;;5051196;28;20025;-84
2021/06/04 07:54:35;;;;;;;6.28;3.10;;;38.60;30.30;;;;;;5051100;28;20040;-85
2021/06/04 07:57:03;;;;;;;10.32;4.00;;;38.40;30.20;;;;;;5052035;28;20049;-84
2021/06/04 07:59:29;;;;;;;15.23;3.40;;;38.20;30.30;;;;;;5050729;28;20028;-85
2021/06/04 08:01:55;;;;;;;77.25;11.43;;;37.80;30.10;;;;;;5050051;28;20092;-84
2021/06/04 08:04:21;;;;;;;6.72;2.90;;;37.50;30.30;;;;;;5049417;28;20037;-85
2021/06/04 08:06:47;;;;;;;5.95;3.05;;;37.20;30.90;;;;;;5052469;28;20105;-83
2021/06/04 08:09:14;;;;;;;8.57;3.70;;;36.90;30.70;;;;;;5050428;28;20375;-84
2021/06/04 08:11:49;;;;;;;13.23;4.18;;;36.40;31.10;;;;;;5051542;28;20017;-85
2021/06/04 08:14:22;;;;;;;15.50;3.78;;;36.10;31.30;;;;;;5051958;28;20025;-85
2021/06/04 08:16:48;;;;;;;9.88;3.90;;;35.80;31.50;;;;;;5056112;28;20029;-85
2021/06/04 08:19:16;;;;;;;8.90;3.45;;;35.70;31.70;;;;;;5066739;28;20025;-82
2021/06/04 08:21:45;;;;;;;7.35;2.85;;;35.70;31.50;;;;;;5059963;28;20017;-84
2021/06/04 08:24:14;;;;;;;13.45;3.13;;;35.70;31.20;;;;;;5060511;28;20521;-84
2021/06/04 08:26:41;;;;;;;7.80;2.75;;;35.80;31.20;;;;;;5053542;28;20143;-84
2021/06/04 08:29:08;;;;;;;10.40;3.20;;;35.70;30.80;;;;;;5049936;28;20049;-84
2021/06/04 08:31:35;;;;;;;10.35;4.80;;;35.70;30.40;;;;;;5051793;28;20016;-84
2021/06/04 08:34:01;;;;;;;4.22;2.80;;;35.50;30.30;;;;;;5057730;28;20124;-83
2021/06/04 08:36:34;;;;;;;16.67;6.18;;;35.00;30.20;;;;;;5055634;28;20027;-85
2021/06/04 08:39:02;;;;;;;9.35;3.00;;;34.30;30.50;;;;;;5054479;28;20056;-83
2021/06/04 08:41:46;;;;;;;9.07;3.10;;;33.90;30.30;;;;;;5056405;28;20447;-84
2021/06/04 08:44:22;;;;;;;8.85;2.88;;;33.40;30.00;;;;;;5054580;28;20033;-84
2021/06/04 08:47:06;;;;;;;12.38;3.95;;;33.20;30.00;;;;;;5054981;28;20009;-85
2021/06/04 08:49:41;;;;;;;18.02;5.07;;;33.10;30.20;;;;;;5053302;28;20470;-85
2021/06/04 08:52:33;;;;;;;11.38;2.75;;;32.80;30.50;;;;;;5052515;28;20480;-84
2021/06/04 08:55:08;;;;;;;7.95;2.65;;;32.60;30.30;;;;;;5049406;28;20471;-83
2021/06/04 08:57:55;;;;;;;10.70;2.78;;;32.50;30.20;;;;;;5052091;28;20043;-84
2021/06/04 09:00:29;;;;;;;9.63;2.63;;;32.20;30.00;;;;;;5049403;28;20460;-84
2021/06/04 09:03:07;;;;;;;10.40;3.40;;;32.00;30.10;;;;;;5051572;28;20830;-84
2021/06/04 09:05:49;;;;;;;7.32;2.95;;;31.80;30.40;;;;;;5052915;28;20032;-83
2021/06/04 09:08:21;;;;;;;5.40;2.30;;;31.60;30.60;;;;;;5052717;28;20115;-84
2021/06/04 09:10:50;;;;;;;10.23;3.25;;;31.50;30.60;;;;;;5052403;28;20021;-83
2021/06/04 09:13:23;;;;;;;7.57;3.13;;;31.50;30.40;;;;;;5049306;28;20079;-86
2021/06/04 09:15:51;;;;;;;5.75;2.25;;;31.40;30.70;;;;;;5053855;28;20100;-87
2021/06/04 09:18:25;;;;;;;7.70;3.28;;;31.40;30.90;;;;;;5054101;28;20032;-86
2021/06/04 09:20:53;;;;;;;7.65;3.13;;;31.30;31.20;;;;;;5060446;28;20028;-85
2021/06/04 09:23:25;;;;;;;16.52;3.85;;;31.40;31.50;;;;;;5052279;28;20032;-87
2021/06/04 09:25:51;;;;;;;10.25;3.88;;;31.60;31.90;;;;;;5053532;28;20029;-86
2021/06/04 09:28:24;;;;;;;7.15;3.08;;;31.80;31.90;;;;;;5053827;28;20135;-86
2021/06/04 09:31:13;;;;;;;6.75;2.20;;;31.80;31.60;;;;;;5053516;28;20027;-86
2021/06/04 09:33:52;;;;;;;6.18;2.63;;;31.70;30.40;;;;;;5051717;28;20541;-87
2021/06/04 09:36:41;;;;;;;5.57;2.55;;;31.20;30.50;;;;;;5050018;28;20075;-87
2021/06/04 09:39:08;;;;;;;5.90;2.53;;;31.00;30.80;;;;;;5053050;28;20025;-89
2021/06/04 09:41:34;;;;;;;5.18;2.30;;;30.70;31.00;;;;;;5051345;28;20025;-85
2021/06/04 09:44:21;;;;;;;5.72;2.10;;;30.40;30.90;;;;;;5052677;28;20021;-80
2021/06/04 09:46:58;;;;;;;8.85;2.70;;;30.10;31.60;;;;;;5051360;28;20025;-84
2021/06/04 09:49:35;;;;;;;4.85;2.22;;;30.20;31.70;;;;;;5052521;28;20048;-85
2021/06/04 09:55:30;;;;;;;6.35;2.58;;;29.90;31.00;;;;;;5038557;28;20041;-84
2021/06/04 09:57:58;;;;;;;7.82;2.90;;;29.80;31.80;;;;;;5053606;28;20082;-83
2021/06/04 10:04:03;;;;;;;6.63;3.00;;;29.90;31.90;;;;;;5053654;28;20021;-87
2021/06/04 10:06:37;;;;;;;6.85;2.42;;;30.10;32.00;;;;;;5055486;28;20040;-90
2021/06/04 10:09:25;;;;;;;6.70;2.20;;;30.20;31.50;;;;;;5056007;28;20040;-82
2021/06/04 10:12:04;;;;;;;6.80;2.40;;;30.10;30.80;;;;;;5058133;28;20135;-83
2021/06/04 10:17:58;;;;;;;7.10;3.08;;;30.00;32.10;;;;;;5059700;28;20032;-85
2021/06/04 10:20:46;;;;;;;13.90;2.65;;;30.10;32.20;;;;;;5054385;28;20028;-85
2021/06/04 10:23:37;;;;;;;8.68;2.88;;;30.00;31.70;;;;;;5054823;28;20033;-86
2021/06/04 10:26:18;;;;;;;12.45;4.00;;;30.00;31.60;;;;;;5054572;28;20086;-83
2021/06/04 10:28:48;;;;;;;8.93;2.97;;;30.10;32.20;;;;;;5053847;28;20040;-78
2021/06/04 10:31:17;;;;;;;34.73;4.03;;;30.30;31.90;;;;;;5052092;28;20021;-78
2021/06/04 10:33:52;;;;;;;18.90;2.60;;;30.20;31.20;;;;;;5052487;28;20294;-79
2021/06/04 10:36:21;;;;;;;8.18;2.70;;;30.00;30.80;;;;;;5050905;28;20021;-79
2021/06/04 10:38:53;;;;;;;7.03;2.40;;;29.80;30.40;;;;;;5052591;28;20044;-80
2021/06/04 10:41:53;;;;;;;8.90;2.30;;;29.60;30.90;;;;;;5050820;28;20487;-80
2021/06/04 10:44:39;;;;;;;10.15;2.88;;;29.50;31.30;;;;;;5051738;28;20056;-78
2021/06/04 10:47:14;;;;;;;9.57;2.30;;;29.30;31.50;;;;;;5053748;28;20036;-84
2021/06/04 10:50:19;;;;;;;5.80;2.50;;;29.10;31.50;;;;;;5054117;28;20036;-84
2021/06/04 10:53:10;;;;;;;9.82;2.60;;;28.90;31.70;;;;;;5054232;28;20554;-84
2021/06/04 10:56:09;;;;;;;6.30;2.55;;;28.60;32.30;;;;;;5053906;28;20036;-85
2021/06/04 10:58:41;;;;;;;8.13;2.20;;;28.60;32.70;;;;;;5053287;28;20064;-84
2021/06/04 11:01:10;;;;;;;;;;;28.60;32.40;;;;;;5052820;28;20422;-84
2021/06/04 11:03:58;;;;;;;8.35;3.95;;;28.50;32.40;;;;;;5053693;28;19912;-83
2021/06/04 11:06:30;;;;;;;6.10;2.35;;;28.40;32.40;;;;;;5052462;28;20044;-83
2021/06/04 11:09:15;;;;;;;7.88;2.53;;;28.30;32.50;;;;;;5054646;28;20361;-84
2021/06/04 11:12:01;;;;;;;6.18;2.70;;;28.10;32.50;;;;;;5057051;28;20522;-84
2021/06/04 11:14:43;;;;;;;9.00;3.53;;;28.10;32.90;;;;;;5053149;28;20033;-83
2021/06/04 11:17:44;;;;;;;7.68;3.15;;;28.20;32.60;;;;;;5055463;28;20459;-84
2021/06/04 11:20:27;;;;;;;11.82;3.10;;;28.20;32.80;;;;;;5051999;28;20064;-83
2021/06/04 11:23:18;;;;;;;7.88;2.78;;;28.50;33.10;;;;;;5053756;28;20068;-84
2021/06/04 11:25:58;;;;;;;2.37;2.10;;;28.80;32.60;;;;;;5053359;28;20021;-84
2021/06/04 11:29:03;;;;;;;5.65;2.80;;;28.90;32.10;;;;;;5053065;28;20052;-84
2021/06/04 11:31:39;;;;;;;2.78;2.08;;;29.00;31.90;;;;;;5053232;28;20025;-84
2021/06/04 11:34:14;;;;;;;9.25;2.58;;;28.80;31.70;;;;;;5053204;28;20349;-82
2021/06/04 11:36:45;;;;;;;10.52;2.40;;;28.70;31.70;;;;;;5053453;28;20169;-83
2021/06/04 11:39:28;;;;;;;11.07;2.87;;;28.30;31.80;;;;;;5051934;28;20020;-83
2021/06/04 11:41:58;;;;;;;7.05;2.25;;;28.00;32.00;;;;;;5056194;28;20017;-82
2021/06/04 11:44:47;;;;;;;8.65;2.40;;;27.70;32.40;;;;;;5059299;28;20158;-83
2021/06/04 11:47:13;;;;;;;10.70;2.83;;;27.50;33.10;;;;;;5059625;28;20117;-81
2021/06/04 11:49:56;;;;;;;5.05;2.50;;;27.60;33.40;;;;;;5056504;28;20056;-82
2021/06/04 11:52:37;;;;;;;11.20;2.92;;;27.80;33.40;;;;;;5052062;28;20025;-83
2021/06/04 11:55:29;;;;;;;9.43;3.30;;;27.90;33.00;;;;;;5051837;28;20025;-83
2021/06/04 11:58:15;;;;;;;7.68;3.60;;;27.90;33.20;;;;;;5052823;28;20494;-83
2021/06/04 12:00:52;;;;;;;8.30;2.72;;;27.90;33.50;;;;;;5052842;28;20025;-84
2021/06/04 12:03:32;;;;;;;5.03;2.78;;;27.90;33.50;;;;;;5052882;28;20020;-84
2021/06/04 12:06:23;;;;;;;5.93;2.47;;;27.80;33.80;;;;;;5052653;28;20029;-84
2021/06/04 12:08:50;;;;;;;7.40;2.10;;;27.70;33.80;;;;;;5051550;28;20065;-84
2021/06/04 12:11:16;;;;;;;8.73;2.80;;;27.80;33.70;;;;;;5057039;28;20056;-84
2021/06/04 12:13:43;;;;;;;8.38;2.88;;;27.70;33.80;;;;;;5055713;28;20403;-84
2021/06/04 12:16:30;;;;;;;7.35;2.90;;;27.50;33.90;;;;;;5056989;28;20017;-83
2021/06/04 12:19:14;;;;;;;13.02;3.97;;;27.40;34.00;;;;;;5056014;28;20021;-79
2021/06/04 12:21:40;;;;;;;9.57;3.13;;;27.30;34.20;;;;;;5054797;28;20025;-81
2021/06/04 12:24:08;;;;;;;12.82;3.20;;;27.30;34.10;;;;;;5054489;28;20025;-80
2021/06/04 12:26:36;;;;;;;7.70;3.38;;;27.30;34.20;;;;;;5055623;28;20090;-79
2021/06/04 12:29:20;;;;;;;4.75;3.00;;;27.40;34.40;;;;;;5055325;28;20075;-80
2021/06/04 12:32:09;;;;;;;7.65;2.83;;;27.60;34.40;;;;;;5054594;28;20226;-79
2021/06/04 12:37:18;;;;;;;12.82;3.67;;;27.70;33.90;;;;;;5054875;28;20116;-79
2021/06/04 12:39:49;;;;;;;13.13;3.10;;;27.60;33.70;;;;;;5054416;28;20080;-79
2021/06/04 12:42:24;;;;;;;9.80;2.72;;;27.60;33.70;;;;;;5054660;28;20028;-79
2021/06/04 12:45:16;;;;;;;9.88;3.35;;;27.40;33.70;;;;;;5054502;28;20048;-79
2021/06/04 12:48:05;;;;;;;7.93;2.70;;;27.30;33.80;;;;;;5044138;28;20471;-77
2021/06/04 12:50:36;;;;;;;11.23;3.92;;;27.10;33.80;;;;;;5054359;28;20551;-79
2021/06/04 12:53:26;;;;;;;14.75;4.55;;;27.00;34.20;;;;;;5052758;28;20103;-79
2021/06/04 12:55:59;;;;;;;9.57;4.18;;;27.00;34.30;;;;;;5052779;28;20048;-80
2021/06/04 12:58:33;;;;;;;6.22;3.60;;;27.00;34.30;;;;;;5056035;28;20025;-79
2021/06/04 13:01:11;;;;;;;12.73;3.80;;;27.00;34.40;;;;;;5056093;28;20041;-79
2021/06/04 13:04:16;;;;;;;7.32;2.55;;;27.20;34.60;;;;;;5054966;28;20386;-79
2021/06/04 13:06:42;;;;;;;9.18;4.05;;;27.30;34.30;;;;;;5047998;28;20036;-79
2021/06/04 13:09:44;;;;;;;13.65;4.30;;;27.30;34.30;;;;;;5053934;28;20021;-78
2021/06/04 13:12:22;;;;;;;5.07;2.20;;;27.30;34.10;;;;;;5052627;28;20431;-80
2021/06/04 13:14:50;;;;;;;3.40;2.00;;;27.10;33.60;;;;;;5053756;28;20183;-80
2021/06/04 13:17:22;;;;;;;10.65;2.67;;;26.90;33.30;;;;;;5052756;28;20061;-80
2021/06/04 13:19:50;;;;;;;9.52;3.22;;;26.60;33.60;;;;;;5054104;28;20021;-78
2021/06/04 13:22:29;;;;;;;3.78;3.13;;;26.50;33.90;;;;;;5052821;28;20040;-79